Diamond Center, Iowa
Current Conditions -  °F | °C
As of 6:55 PM on Friday 24 Oct 2014 (Local Time) from KCKP Reporting Station
Clear Clear  
Wind Chill: 16°   Ceiling: Unl
Heat Index: 16°   Visibility: 10mi
Dew Point:   Wind: 0mph
Humidity: 62%   Direction: NA
Pressure: 29.94"   Gusts: NA
Location:  42.6502°N, 95.4454°W
Report Text: KCKP 242355Z AUTO 00000KT 10SM CLR 16/09 A2994 RMK AO2 T01640092 10222 20161
Loading
Personal Weather Stations






























Interactive Weather Map
Tropical Storm Tracking
New forecast layout! Learn more

10-Day Weather Forecast

Advertisements
Track Severe Weather on mobile